Time;durP1;ratioP1;P1;durP2;ratioP2;P2;SDS_P1;SDS_P2;PMS_P1;PMS_P2;Temp;Humidity;BMP_temperature;BMP_pressure;BME280_temperature;BME280_humidity;BME280_pressure;Samples;Min_cycle;Max_cycle;Signal;HPM_P1;HPM_P2
2023/12/30 00:02:07;;;;;;;5.82;1.10;;;6.40;99.90;;;;;;4958838;28;20126;-80
2023/12/30 00:04:33;;;;;;;8.45;1.00;;;6.30;99.90;;;;;;4960166;28;20041;-77
2023/12/30 00:07:00;;;;;;;10.27;1.13;;;6.30;99.90;;;;;;4972842;28;20050;-77
2023/12/30 00:09:26;;;;;;;8.38;0.65;;;6.20;99.90;;;;;;4974081;28;20445;-76
2023/12/30 00:11:53;;;;;;;4.85;1.00;;;6.10;99.90;;;;;;4974179;28;20386;-81
2023/12/30 00:14:20;;;;;;;5.55;1.02;;;6.10;99.90;;;;;;4973418;28;20035;-76
2023/12/30 00:16:46;;;;;;;5.53;1.02;;;6.00;99.90;;;;;;4973606;28;20037;-79
2023/12/30 00:19:13;;;;;;;7.85;1.15;;;6.00;99.90;;;;;;4972636;28;20037;-79
2023/12/30 00:21:39;;;;;;;5.00;0.80;;;6.00;99.90;;;;;;4957021;28;20401;-80
2023/12/30 00:24:06;;;;;;;5.03;1.00;;;5.90;99.90;;;;;;4973910;28;20471;-79
2023/12/30 00:26:32;;;;;;;6.47;0.80;;;5.90;99.90;;;;;;4970891;28;20378;-79
2023/12/30 00:29:11;;;;;;;6.90;1.15;;;5.90;99.90;;;;;;4959211;28;20041;-79
2023/12/30 00:31:38;;;;;;;4.93;1.02;;;5.80;99.90;;;;;;4957489;28;20053;-78
2023/12/30 00:34:04;;;;;;;8.32;1.13;;;5.80;99.90;;;;;;4977633;28;20034;-80
2023/12/30 00:36:30;;;;;;;11.95;1.42;;;5.80;99.90;;;;;;4974880;28;20397;-79
2023/12/30 00:38:57;;;;;;;9.07;1.27;;;5.70;99.90;;;;;;4975305;28;20389;-82
2023/12/30 00:41:25;;;;;;;8.75;1.80;;;5.70;99.90;;;;;;4977302;28;20429;-81
2023/12/30 00:43:51;;;;;;;4.97;0.85;;;5.70;99.90;;;;;;4960628;28;20034;-76
2023/12/30 00:46:21;;;;;;;5.15;1.35;;;5.70;99.90;;;;;;4975321;28;20041;-78
2023/12/30 00:48:48;;;;;;;5.18;0.90;;;5.70;99.90;;;;;;4976268;28;20042;-80
2023/12/30 00:51:16;;;;;;;8.32;1.10;;;5.70;99.90;;;;;;4976742;28;20128;-79
2023/12/30 00:53:42;;;;;;;7.72;1.30;;;5.60;99.90;;;;;;4976677;28;20124;-80
2023/12/30 00:56:09;;;;;;;9.63;1.27;;;5.60;99.90;;;;;;4958992;28;20053;-81
2023/12/30 00:58:35;;;;;;;7.95;1.90;;;5.60;99.90;;;;;;4975422;28;20060;-76
2023/12/30 01:01:02;;;;;;;8.25;1.45;;;5.60;99.90;;;;;;4976764;28;20030;-80
2023/12/30 01:03:29;;;;;;;9.13;1.38;;;5.60;99.90;;;;;;4974849;28;20528;-79
2023/12/30 01:05:55;;;;;;;15.10;1.45;;;5.60;99.90;;;;;;4976795;28;20042;-80
2023/12/30 01:08:21;;;;;;;8.00;1.30;;;5.60;99.90;;;;;;4975743;28;20034;-79
2023/12/30 01:10:48;;;;;;;9.27;1.42;;;5.60;99.90;;;;;;4974659;28;20034;-80
2023/12/30 01:13:15;;;;;;;8.45;1.40;;;5.60;99.90;;;;;;4974936;28;20034;-81
2023/12/30 01:15:41;;;;;;;8.68;1.70;;;5.50;99.90;;;;;;4973320;28;20031;-80
2023/12/30 01:18:08;;;;;;;5.47;1.38;;;5.50;99.90;;;;;;4975483;28;20402;-79
2023/12/30 01:20:34;;;;;;;6.00;1.40;;;5.50;99.90;;;;;;4943018;28;20057;-80
2023/12/30 01:23:01;;;;;;;12.23;1.17;;;5.50;99.90;;;;;;4960534;28;20046;-80
2023/12/30 01:25:27;;;;;;;9.95;1.23;;;5.50;99.90;;;;;;4972884;28;20038;-78
2023/12/30 01:27:54;;;;;;;7.82;0.82;;;5.50;99.90;;;;;;4975044;28;20046;-81
2023/12/30 01:30:20;;;;;;;17.48;1.80;;;5.50;99.90;;;;;;4957836;28;20046;-80
2023/12/30 01:32:46;;;;;;;16.20;1.50;;;5.50;99.90;;;;;;4973737;28;20513;-79
2023/12/30 01:35:14;;;;;;;8.43;1.00;;;5.50;99.90;;;;;;4975555;28;20049;-78
2023/12/30 01:37:41;;;;;;;5.10;0.80;;;5.50;99.90;;;;;;4973592;28;20034;-80
2023/12/30 01:40:08;;;;;;;9.23;1.30;;;5.50;99.90;;;;;;4991800;28;20064;-74
2023/12/30 01:42:35;;;;;;;8.60;1.20;;;5.50;99.90;;;;;;4958065;28;20388;-81
2023/12/30 01:45:02;;;;;;;10.15;1.10;;;5.50;99.90;;;;;;4973888;28;20043;-78
2023/12/30 01:47:31;;;;;;;11.15;1.15;;;5.50;99.90;;;;;;4959232;28;20030;-80
2023/12/30 01:49:57;;;;;;;9.80;1.20;;;5.50;99.90;;;;;;4973543;28;20038;-76
2023/12/30 01:52:23;;;;;;;5.07;0.98;;;5.50;99.90;;;;;;4975077;28;20477;-80
2023/12/30 01:54:50;;;;;;;10.35;1.05;;;5.50;99.90;;;;;;4975136;28;20031;-78
2023/12/30 01:57:17;;;;;;;9.40;1.20;;;5.40;99.90;;;;;;4959878;28;20038;-80
2023/12/30 01:59:45;;;;;;;11.32;0.88;;;5.50;99.90;;;;;;4992772;28;20689;-76
2023/12/30 02:02:12;;;;;;;9.95;0.82;;;5.50;99.90;;;;;;4976083;28;20048;-81
2023/12/30 02:04:38;;;;;;;10.70;0.80;;;5.50;99.90;;;;;;4975593;28;20030;-79
2023/12/30 02:07:05;;;;;;;11.52;1.42;;;5.50;99.90;;;;;;4977030;28;20421;-81
2023/12/30 02:09:32;;;;;;;8.43;0.90;;;5.40;99.90;;;;;;4994611;28;20052;-78
2023/12/30 02:11:59;;;;;;;6.90;0.93;;;5.40;99.90;;;;;;4975545;28;20038;-81
2023/12/30 02:14:27;;;;;;;10.77;0.90;;;5.50;99.90;;;;;;4974719;28;20046;-79
2023/12/30 02:16:53;;;;;;;6.18;1.10;;;5.40;99.90;;;;;;4977750;28;20114;-79
2023/12/30 02:19:20;;;;;;;11.77;1.35;;;5.40;99.90;;;;;;4964926;28;20070;-76
2023/12/30 02:21:48;;;;;;;5.40;0.73;;;5.40;99.90;;;;;;4960144;28;20663;-82
2023/12/30 02:24:14;;;;;;;7.75;1.05;;;5.40;99.90;;;;;;4975911;28;20681;-77
2023/12/30 02:26:41;;;;;;;12.98;1.25;;;5.40;99.90;;;;;;4960634;28;20066;-79
2023/12/30 02:29:07;;;;;;;12.88;1.30;;;5.50;99.90;;;;;;4993872;28;20036;-81
2023/12/30 02:31:45;;;;;;;9.70;1.30;;;5.50;99.90;;;;;;4976877;28;20045;-80
2023/12/30 02:34:14;;;;;;;12.30;1.20;;;5.50;99.90;;;;;;4975354;28;20507;-78
2023/12/30 02:36:40;;;;;;;7.93;0.98;;;5.50;99.90;;;;;;4961952;28;20030;-80
2023/12/30 02:39:06;;;;;;;9.75;1.38;;;5.50;99.90;;;;;;4966827;28;20043;-81
2023/12/30 02:41:32;;;;;;;8.18;1.27;;;5.50;99.90;;;;;;4978033;28;20041;-82
2023/12/30 02:44:03;;;;;;;12.95;2.08;;;5.60;99.90;;;;;;4963159;28;20054;-76
2023/12/30 02:46:30;;;;;;;17.38;1.73;;;5.60;99.90;;;;;;4978750;28;20505;-80
2023/12/30 02:49:02;;;;;;;22.20;2.22;;;5.60;99.90;;;;;;4976129;28;21261;-79
2023/12/30 02:51:29;;;;;;;17.25;1.60;;;5.60;99.90;;;;;;4976094;28;20042;-80
2023/12/30 02:53:56;;;;;;;11.55;1.48;;;5.60;99.90;;;;;;4993267;28;20585;-81
2023/12/30 02:56:24;;;;;;;15.68;2.22;;;5.60;99.90;;;;;;4945966;28;20411;-79
2023/12/30 02:58:58;;;;;;;8.07;1.25;;;5.70;99.90;;;;;;4977823;28;20043;-76
2023/12/30 03:01:29;;;;;;;13.10;2.10;;;5.70;99.90;;;;;;4977978;28;20035;-79
2023/12/30 03:03:58;;;;;;;17.50;1.83;;;5.70;99.90;;;;;;4979429;28;20038;-82
2023/12/30 03:06:25;;;;;;;19.38;1.45;;;5.70;99.90;;;;;;4962692;28;20038;-81
2023/12/30 03:08:52;;;;;;;8.68;1.00;;;5.70;99.90;;;;;;4962534;28;20030;-80
2023/12/30 03:11:19;;;;;;;12.35;1.20;;;5.70;99.90;;;;;;4963998;28;20030;-75
2023/12/30 03:13:46;;;;;;;10.07;1.17;;;5.70;99.90;;;;;;4978501;28;20056;-82
2023/12/30 03:16:16;;;;;;;12.75;1.20;;;5.70;99.90;;;;;;4978019;28;20477;-82
2023/12/30 03:18:43;;;;;;;22.05;2.78;;;5.70;99.90;;;;;;4977741;28;20041;-78
2023/12/30 03:21:11;;;;;;;12.30;1.80;;;5.70;99.90;;;;;;4976282;28;20049;-77
2023/12/30 03:23:38;;;;;;;13.25;1.45;;;5.70;99.90;;;;;;4977228;28;20043;-80
2023/12/30 03:26:06;;;;;;;11.10;2.20;;;5.70;99.90;;;;;;4976429;28;20043;-80
2023/12/30 03:28:32;;;;;;;11.80;1.23;;;5.70;99.90;;;;;;4962262;28;20034;-79
2023/12/30 03:30:59;;;;;;;15.27;1.75;;;5.70;99.90;;;;;;4974941;28;20046;-76
2023/12/30 03:33:26;;;;;;;12.38;1.83;;;5.70;99.90;;;;;;4978343;28;20041;-80
2023/12/30 03:35:53;;;;;;;9.73;1.35;;;5.70;99.90;;;;;;4978370;28;20038;-81
2023/12/30 03:38:20;;;;;;;8.57;1.25;;;5.70;99.90;;;;;;4978797;28;20041;-79
2023/12/30 03:40:46;;;;;;;8.82;1.45;;;5.70;99.90;;;;;;4961383;28;20039;-80
2023/12/30 03:43:13;;;;;;;10.82;1.45;;;5.70;99.90;;;;;;4992643;28;20042;-81
2023/12/30 03:45:40;;;;;;;19.92;1.80;;;5.70;99.90;;;;;;4977781;28;20030;-80
2023/12/30 03:48:07;;;;;;;9.82;1.50;;;5.70;99.90;;;;;;4978722;28;20674;-77
2023/12/30 03:50:34;;;;;;;11.70;1.35;;;5.70;99.90;;;;;;4975774;28;20392;-80
2023/12/30 03:53:02;;;;;;;13.43;1.27;;;5.70;99.90;;;;;;4976263;28;20048;-79
2023/12/30 03:55:28;;;;;;;8.20;1.00;;;5.70;99.90;;;;;;4958326;28;20058;-78
2023/12/30 03:57:56;;;;;;;14.63;1.20;;;5.70;99.90;;;;;;4974850;28;20042;-80
2023/12/30 04:00:23;;;;;;;5.82;0.98;;;5.70;99.90;;;;;;4995085;28;20511;-79
2023/12/30 04:02:49;;;;;;;12.10;1.20;;;5.70;99.90;;;;;;4959843;28;20030;-75
2023/12/30 04:05:15;;;;;;;10.93;1.20;;;5.70;99.90;;;;;;4992514;28;20030;-79
2023/12/30 04:07:42;;;;;;;8.20;1.17;;;5.70;99.90;;;;;;4957322;28;20034;-78
2023/12/30 04:10:08;;;;;;;8.50;1.00;;;5.70;99.90;;;;;;4978822;28;20343;-78
2023/12/30 04:12:35;;;;;;;11.45;1.00;;;5.70;99.90;;;;;;4946401;28;20034;-81
2023/12/30 04:15:02;;;;;;;12.27;2.08;;;5.70;99.90;;;;;;4977742;28;20046;-79
2023/12/30 04:17:31;;;;;;;14.57;1.13;;;5.70;99.90;;;;;;4960041;28;20047;-78
2023/12/30 04:19:58;;;;;;;14.10;1.13;;;5.70;99.90;;;;;;4975309;28;20626;-76
2023/12/30 04:22:27;;;;;;;8.38;1.10;;;5.70;99.90;;;;;;4942326;28;20038;-80
2023/12/30 04:24:53;;;;;;;20.00;2.00;;;5.70;99.90;;;;;;4974237;28;20046;-79
2023/12/30 04:27:19;;;;;;;12.80;2.00;;;5.70;99.90;;;;;;4990911;28;20389;-80
2023/12/30 04:29:46;;;;;;;13.55;1.23;;;5.70;99.90;;;;;;4976183;28;20046;-81
2023/12/30 04:32:12;;;;;;;12.45;1.75;;;5.70;99.90;;;;;;4962196;28;20049;-79
2023/12/30 04:34:39;;;;;;;12.55;1.67;;;5.70;99.90;;;;;;4959594;28;20046;-77
2023/12/30 04:37:05;;;;;;;13.55;1.17;;;5.70;99.90;;;;;;4990424;28;20026;-81
2023/12/30 04:39:32;;;;;;;7.00;1.20;;;5.70;99.90;;;;;;4975560;28;20031;-80
2023/12/30 04:41:59;;;;;;;14.98;1.95;;;5.70;99.90;;;;;;4976526;28;20630;-81
2023/12/30 04:44:26;;;;;;;17.35;1.85;;;5.70;99.90;;;;;;4961654;28;20424;-79
2023/12/30 04:46:52;;;;;;;16.88;1.75;;;5.70;99.90;;;;;;4943797;28;20049;-76
2023/12/30 04:49:18;;;;;;;10.27;1.40;;;5.70;99.90;;;;;;4945910;28;20034;-80
2023/12/30 04:51:45;;;;;;;17.65;1.35;;;5.70;99.90;;;;;;4958979;28;20492;-81
2023/12/30 04:54:11;;;;;;;10.82;1.67;;;5.70;99.90;;;;;;4976552;28;20041;-83
2023/12/30 04:56:38;;;;;;;11.25;1.10;;;5.70;99.90;;;;;;4991942;28;20061;-79
2023/12/30 04:59:05;;;;;;;9.75;1.00;;;5.70;99.90;;;;;;4976367;28;20496;-77
2023/12/30 05:01:32;;;;;;;21.48;1.65;;;5.70;99.90;;;;;;4959407;28;20074;-82
2023/12/30 05:03:58;;;;;;;13.88;2.20;;;5.70;99.90;;;;;;4976856;28;20042;-81
2023/12/30 05:06:25;;;;;;;12.50;1.23;;;5.70;99.90;;;;;;4961766;28;20326;-78
2023/12/30 05:08:52;;;;;;;15.88;1.38;;;5.70;99.90;;;;;;4959531;28;20045;-78
2023/12/30 05:11:20;;;;;;;15.82;1.50;;;5.70;99.90;;;;;;4975476;28;20037;-80
2023/12/30 05:13:46;;;;;;;15.70;1.60;;;5.70;99.90;;;;;;4992247;28;20038;-82
2023/12/30 05:16:13;;;;;;;12.45;1.83;;;5.70;99.90;;;;;;4975280;28;20030;-82
2023/12/30 05:18:39;;;;;;;14.98;1.60;;;5.70;99.90;;;;;;4960828;28;20501;-79
2023/12/30 05:21:17;;;;;;;15.38;1.48;;;5.70;99.90;;;;;;4957774;28;20440;-83
2023/12/30 05:23:44;;;;;;;10.95;1.45;;;5.70;99.90;;;;;;4994562;28;20035;-82
2023/12/30 05:26:14;;;;;;;9.40;1.10;;;5.60;99.90;;;;;;4960343;28;20046;-78
2023/12/30 05:28:40;;;;;;;13.38;1.70;;;5.60;99.90;;;;;;4964995;28;20042;-78
2023/12/30 05:31:07;;;;;;;14.57;1.23;;;5.60;99.90;;;;;;4978948;28;20037;-80
2023/12/30 05:33:33;;;;;;;12.55;0.93;;;5.60;99.90;;;;;;4958140;28;20030;-77
2023/12/30 05:36:00;;;;;;;11.55;1.20;;;5.60;99.90;;;;;;4959932;28;20042;-78
2023/12/30 05:38:26;;;;;;;9.02;1.27;;;5.60;99.90;;;;;;4958253;28;20053;-78
2023/12/30 05:40:52;;;;;;;10.00;1.67;;;5.60;99.90;;;;;;4974877;28;20037;-81
2023/12/30 05:43:18;;;;;;;15.98;2.42;;;5.60;99.90;;;;;;4974170;28;20354;-81
2023/12/30 05:45:45;;;;;;;10.05;1.30;;;5.60;99.90;;;;;;4975678;28;20393;-76
2023/12/30 05:48:13;;;;;;;16.17;2.05;;;5.60;99.90;;;;;;4958629;28;20836;-79
2023/12/30 05:50:39;;;;;;;7.82;1.40;;;5.60;99.90;;;;;;4974295;28;20026;-81
2023/12/30 05:53:06;;;;;;;16.25;1.98;;;5.60;99.90;;;;;;4973192;28;20524;-83
2023/12/30 05:55:32;;;;;;;10.65;1.67;;;5.60;99.90;;;;;;4956835;28;20038;-76
2023/12/30 05:57:58;;;;;;;18.10;2.30;;;5.60;99.90;;;;;;4974055;28;20959;-81
2023/12/30 06:00:24;;;;;;;16.30;2.70;;;5.50;99.90;;;;;;4974861;28;20444;-82
2023/12/30 06:02:52;;;;;;;20.60;1.73;;;5.50;99.90;;;;;;4972807;28;20038;-81
2023/12/30 06:05:18;;;;;;;15.40;1.50;;;5.50;99.90;;;;;;4974023;28;20061;-82
2023/12/30 06:07:45;;;;;;;11.93;1.67;;;5.50;99.90;;;;;;4972995;28;20045;-80
2023/12/30 06:10:11;;;;;;;14.27;2.00;;;5.50;99.90;;;;;;4973311;28;20038;-81
2023/12/30 06:12:37;;;;;;;15.55;2.28;;;5.50;99.90;;;;;;4957178;28;20034;-80
2023/12/30 06:15:04;;;;;;;19.98;1.73;;;5.50;99.90;;;;;;4976127;28;20030;-80
2023/12/30 06:17:30;;;;;;;16.48;2.28;;;5.50;99.90;;;;;;4974968;28;20031;-76
2023/12/30 06:19:57;;;;;;;12.32;1.80;;;5.50;99.90;;;;;;4942783;28;20042;-80
2023/12/30 06:22:23;;;;;;;11.57;1.85;;;5.50;99.90;;;;;;4973496;28;20054;-80
2023/12/30 06:24:49;;;;;;;15.32;1.85;;;5.50;99.90;;;;;;4977387;28;20481;-79
2023/12/30 06:27:15;;;;;;;14.35;2.53;;;5.50;99.90;;;;;;4975145;28;20041;-80
2023/12/30 06:29:42;;;;;;;17.13;3.00;;;5.50;99.90;;;;;;4973438;28;20492;-80
2023/12/30 06:32:08;;;;;;;15.07;2.10;;;5.50;99.90;;;;;;4956685;28;20485;-81
2023/12/30 06:34:35;;;;;;;11.88;1.88;;;5.50;99.90;;;;;;4972361;28;20038;-82
2023/12/30 06:37:01;;;;;;;19.13;2.58;;;5.50;99.90;;;;;;4975043;28;20038;-82
2023/12/30 06:39:27;;;;;;;13.77;2.22;;;5.50;99.90;;;;;;4957952;28;20436;-76
2023/12/30 06:41:54;;;;;;;10.18;2.95;;;5.50;99.90;;;;;;4957417;28;20038;-79
2023/12/30 06:44:20;;;;;;;14.77;2.08;;;5.50;99.90;;;;;;4991279;28;20030;-79
2023/12/30 06:46:46;;;;;;;17.73;2.10;;;5.40;99.90;;;;;;4974434;28;20042;-80
2023/12/30 06:49:13;;;;;;;16.52;2.75;;;5.50;99.90;;;;;;4960825;28;20039;-76
2023/12/30 06:51:42;;;;;;;19.08;2.50;;;5.50;99.90;;;;;;4974299;28;20038;-78
2023/12/30 06:54:09;;;;;;;14.75;2.33;;;5.50;99.90;;;;;;4975895;28;20038;-82
2023/12/30 06:56:35;;;;;;;21.10;2.78;;;5.50;99.90;;;;;;4977083;28;20042;-80
2023/12/30 06:59:01;;;;;;;15.20;3.33;;;5.50;99.90;;;;;;4963870;28;20040;-81
2023/12/30 07:01:27;;;;;;;19.85;4.07;;;5.50;99.90;;;;;;4979133;28;20041;-76
2023/12/30 07:03:55;;;;;;;20.23;4.18;;;5.50;99.90;;;;;;4977318;28;20042;-79
2023/12/30 07:06:21;;;;;;;21.20;4.55;;;5.60;99.90;;;;;;4978480;28;20042;-81
2023/12/30 07:08:48;;;;;;;20.30;4.95;;;5.60;99.90;;;;;;4978771;28;20042;-80
2023/12/30 07:11:14;;;;;;;20.95;5.68;;;5.60;99.90;;;;;;4976211;28;20037;-79
2023/12/30 07:13:40;;;;;;;15.93;4.53;;;5.60;99.90;;;;;;4977448;28;20040;-77
2023/12/30 07:16:07;;;;;;;16.10;5.10;;;5.60;99.90;;;;;;4980405;28;20045;-81
2023/12/30 07:18:33;;;;;;;19.58;4.63;;;5.60;99.90;;;;;;4980522;28;20061;-83
2023/12/30 07:21:00;;;;;;;19.98;4.82;;;5.50;99.90;;;;;;4964742;28;20451;-80
2023/12/30 07:23:26;;;;;;;17.38;5.10;;;5.50;99.90;;;;;;4984985;28;20030;-74
2023/12/30 07:25:52;;;;;;;16.52;5.25;;;5.50;99.90;;;;;;4962026;28;20512;-80
2023/12/30 07:28:18;;;;;;;25.75;7.75;;;5.50;99.90;;;;;;4977480;28;20046;-82
2023/12/30 07:30:45;;;;;;;19.52;5.22;;;5.50;99.90;;;;;;4978038;28;20496;-81
2023/12/30 07:33:11;;;;;;;22.98;7.05;;;5.50;99.90;;;;;;4977964;28;20038;-82
2023/12/30 07:35:38;;;;;;;31.27;6.55;;;5.50;99.90;;;;;;4959259;28;20042;-80
2023/12/30 07:38:04;;;;;;;31.92;8.45;;;5.50;99.90;;;;;;4978508;28;20473;-80
2023/12/30 07:40:31;;;;;;;22.48;6.72;;;5.50;99.90;;;;;;4975652;28;20519;-81
2023/12/30 07:42:57;;;;;;;17.50;6.63;;;5.40;99.90;;;;;;4974422;28;20045;-80
2023/12/30 07:45:23;;;;;;;18.75;6.55;;;5.50;99.90;;;;;;4975854;28;20030;-81
2023/12/30 07:47:49;;;;;;;25.92;7.95;;;5.50;99.90;;;;;;4977983;28;20034;-81
2023/12/30 07:50:16;;;;;;;28.33;7.75;;;5.40;99.90;;;;;;4974419;28;20498;-78
2023/12/30 07:52:43;;;;;;;21.63;6.35;;;5.50;99.90;;;;;;4976112;28;20038;-81
2023/12/30 07:55:09;;;;;;;19.00;6.72;;;5.40;99.90;;;;;;4974080;28;20038;-80
2023/12/30 07:57:36;;;;;;;18.80;6.88;;;5.40;99.90;;;;;;4973779;28;20041;-82
2023/12/30 08:00:04;;;;;;;18.08;5.88;;;5.40;99.90;;;;;;4976949;28;20034;-79
2023/12/30 08:02:38;;;;;;;19.38;6.65;;;5.40;99.90;;;;;;4977430;28;20034;-78
2023/12/30 08:05:04;;;;;;;19.67;6.10;;;5.40;99.90;;;;;;4964208;28;20034;-78
2023/12/30 08:07:31;;;;;;;17.67;4.82;;;5.40;99.90;;;;;;4978902;28;20401;-78
2023/12/30 08:09:57;;;;;;;16.17;4.60;;;5.40;99.90;;;;;;4976208;28;20837;-82
2023/12/30 08:12:23;;;;;;;11.90;4.63;;;5.40;99.90;;;;;;4978150;28;20041;-81
2023/12/30 08:14:50;;;;;;;15.50;5.30;;;5.40;99.90;;;;;;4943024;28;20027;-82
2023/12/30 08:17:16;;;;;;;19.77;6.18;;;5.40;99.90;;;;;;4976642;28;20045;-74
2023/12/30 08:19:42;;;;;;;18.73;5.38;;;5.40;99.90;;;;;;4977000;28;20030;-80
2023/12/30 08:22:09;;;;;;;22.27;4.93;;;5.40;99.90;;;;;;4992810;28;20041;-76
2023/12/30 08:24:35;;;;;;;17.88;4.75;;;5.40;99.90;;;;;;4961144;28;20054;-79
2023/12/30 08:27:01;;;;;;;15.98;4.97;;;5.50;99.90;;;;;;4972843;28;20043;-75
2023/12/30 08:29:28;;;;;;;17.73;5.32;;;5.50;99.90;;;;;;4977970;28;20057;-80
2023/12/30 08:31:54;;;;;;;20.42;5.53;;;5.50;99.90;;;;;;4972389;28;20030;-76
2023/12/30 08:34:21;;;;;;;16.15;4.63;;;5.50;99.90;;;;;;4975791;28;20045;-80
2023/12/30 08:36:47;;;;;;;23.70;4.75;;;5.60;99.90;;;;;;4958963;28;20030;-79
2023/12/30 08:39:13;;;;;;;17.27;4.93;;;5.60;99.90;;;;;;4972400;28;20445;-83
2023/12/30 08:41:40;;;;;;;25.98;5.70;;;5.70;99.90;;;;;;4972546;28;20030;-80
2023/12/30 08:44:07;;;;;;;14.27;4.68;;;5.70;99.90;;;;;;4973431;28;20424;-79
2023/12/30 08:46:33;;;;;;;20.02;5.13;;;5.70;99.90;;;;;;4973764;28;20049;-79
2023/12/30 08:48:59;;;;;;;20.30;5.65;;;5.70;99.90;;;;;;4976433;28;20042;-78
2023/12/30 08:51:29;;;;;;;15.27;4.63;;;5.80;99.90;;;;;;4975720;28;20022;-77
2023/12/30 08:53:56;;;;;;;26.80;5.07;;;5.80;99.90;;;;;;4974202;28;20038;-78
2023/12/30 08:56:23;;;;;;;23.15;4.57;;;5.90;99.90;;;;;;4989170;28;20038;-75
2023/12/30 08:58:49;;;;;;;16.52;4.75;;;5.90;99.90;;;;;;4959437;28;20066;-77
2023/12/30 09:01:16;;;;;;;27.85;7.72;;;5.90;99.90;;;;;;4974774;28;20492;-80
2023/12/30 09:03:43;;;;;;;22.95;6.78;;;6.00;99.90;;;;;;4971061;28;20049;-79
2023/12/30 09:06:09;;;;;;;34.13;7.50;;;6.00;99.90;;;;;;4957843;28;20038;-76
2023/12/30 09:08:36;;;;;;;23.58;6.35;;;6.10;99.90;;;;;;4957507;28;20042;-77
2023/12/30 09:11:03;;;;;;;22.70;5.32;;;6.10;99.90;;;;;;4974691;28;20034;-81
2023/12/30 09:13:29;;;;;;;14.98;3.65;;;6.20;99.90;;;;;;4977195;28;20041;-79
2023/12/30 09:15:55;;;;;;;19.25;4.13;;;6.20;99.90;;;;;;4991288;28;20038;-80
2023/12/30 09:18:22;;;;;;;18.25;5.38;;;6.30;99.90;;;;;;4962829;28;20037;-75
2023/12/30 09:20:48;;;;;;;19.98;4.88;;;6.30;99.90;;;;;;4976002;28;20035;-81
2023/12/30 09:23:15;;;;;;;22.42;4.82;;;6.40;99.90;;;;;;4976640;28;20036;-82
2023/12/30 09:25:41;;;;;;;16.38;3.88;;;6.40;99.90;;;;;;4975329;28;20069;-80
2023/12/30 09:28:07;;;;;;;24.45;4.82;;;6.40;99.90;;;;;;4976456;28;20049;-79
2023/12/30 09:30:34;;;;;;;20.17;4.82;;;6.40;99.90;;;;;;4973401;28;20035;-73
2023/12/30 09:33:00;;;;;;;23.67;4.30;;;6.50;99.90;;;;;;4972253;28;20485;-79
2023/12/30 09:35:27;;;;;;;17.52;4.22;;;6.50;99.90;;;;;;4976318;28;20046;-79
2023/12/30 09:37:54;;;;;;;21.20;3.70;;;6.50;99.90;;;;;;4975695;28;20056;-83
2023/12/30 09:40:20;;;;;;;23.52;4.57;;;6.50;99.90;;;;;;4959765;28;20045;-80
2023/12/30 09:42:50;;;;;;;16.17;3.72;;;6.60;99.90;;;;;;4972464;28;20061;-79
2023/12/30 09:45:17;;;;;;;19.73;4.18;;;6.60;99.90;;;;;;4973151;28;20429;-75
2023/12/30 09:47:45;;;;;;;23.63;4.65;;;6.60;99.90;;;;;;4959142;28;20038;-80
2023/12/30 09:50:12;;;;;;;12.63;3.00;;;6.60;99.90;;;;;;4973331;28;20038;-80
2023/12/30 09:52:38;;;;;;;11.85;3.03;;;6.70;99.90;;;;;;4990191;28;20022;-77
2023/12/30 09:55:05;;;;;;;14.05;3.90;;;6.70;99.90;;;;;;4975303;28;21209;-77
2023/12/30 09:57:31;;;;;;;24.23;4.35;;;6.80;99.90;;;;;;4974828;28;20049;-77
2023/12/30 09:59:59;;;;;;;19.52;3.50;;;6.90;99.90;;;;;;4973603;28;20038;-78
2023/12/30 10:02:25;;;;;;;19.70;4.20;;;7.00;99.90;;;;;;4974720;28;20038;-77
2023/12/30 10:04:53;;;;;;;17.65;3.88;;;7.10;99.90;;;;;;4971902;28;20038;-80
2023/12/30 10:07:20;;;;;;;21.08;5.07;;;7.10;99.90;;;;;;4975250;28;20037;-80
2023/12/30 10:09:47;;;;;;;19.52;4.13;;;7.20;99.90;;;;;;4975192;28;20897;-80
2023/12/30 10:12:13;;;;;;;22.40;4.80;;;7.20;99.90;;;;;;4974873;28;20034;-79
2023/12/30 10:14:39;;;;;;;16.88;4.55;;;7.20;99.90;;;;;;4991083;28;20362;-79
2023/12/30 10:17:06;;;;;;;18.52;3.38;;;7.30;99.90;;;;;;4976068;28;20363;-80
2023/12/30 10:19:32;;;;;;;23.30;4.00;;;7.30;99.90;;;;;;4972774;28;20126;-77
2023/12/30 10:21:59;;;;;;;12.57;2.50;;;7.30;99.90;;;;;;4976410;28;20043;-75
2023/12/30 10:24:25;;;;;;;15.20;3.28;;;7.40;99.90;;;;;;4973929;28;20026;-80
2023/12/30 10:26:51;;;;;;;12.15;2.03;;;7.40;99.90;;;;;;4974542;28;20034;-80
2023/12/30 10:29:19;;;;;;;13.15;3.10;;;7.50;99.90;;;;;;4978101;28;20044;-75
2023/12/30 10:32:01;;;;;;;19.92;4.40;;;7.50;99.90;;;;;;4952411;28;20030;-77
2023/12/30 10:34:27;;;;;;;13.37;4.40;;;7.60;99.90;;;;;;4979435;28;20034;-82
2023/12/30 10:36:54;;;;;;;17.08;4.70;;;7.60;99.90;;;;;;4995945;28;20365;-80
2023/12/30 10:39:22;;;;;;;19.00;5.30;;;7.70;99.90;;;;;;4978815;28;20357;-78
2023/12/30 10:41:48;;;;;;;18.52;4.93;;;7.70;99.90;;;;;;4975808;28;20373;-83
2023/12/30 10:44:15;;;;;;;21.40;4.65;;;7.70;99.90;;;;;;4979376;28;20444;-82
2023/12/30 10:46:47;;;;;;;17.25;4.38;;;7.80;99.90;;;;;;4995553;28;20038;-82
2023/12/30 10:49:17;;;;;;;23.23;5.43;;;7.80;99.90;;;;;;4982267;28;20042;-85
2023/12/30 10:51:47;;;;;;;19.27;4.70;;;7.90;99.90;;;;;;4975919;28;20042;-77
2023/12/30 10:54:19;;;;;;;17.52;4.82;;;7.90;99.90;;;;;;4980891;28;20046;-81
2023/12/30 10:56:57;;;;;;;22.98;4.32;;;7.90;99.90;;;;;;4980607;28;20029;-77
2023/12/30 10:59:27;;;;;;;21.45;5.03;;;8.00;99.90;;;;;;4978324;28;20489;-78
2023/12/30 11:01:54;;;;;;;28.08;5.53;;;8.00;99.90;;;;;;4994242;28;20022;-74
2023/12/30 11:04:22;;;;;;;29.90;6.05;;;8.00;99.90;;;;;;4978922;28;20042;-79
2023/12/30 11:06:55;;;;;;;28.77;5.88;;;8.00;99.90;;;;;;4977674;28;20485;-80
2023/12/30 11:09:28;;;;;;;18.80;5.40;;;8.00;99.90;;;;;;4978889;28;20030;-73
2023/12/30 11:12:00;;;;;;;15.10;5.28;;;8.00;99.90;;;;;;4977763;28;20038;-82
2023/12/30 11:14:26;;;;;;;20.33;4.28;;;8.00;99.90;;;;;;4979754;28;20050;-80
2023/12/30 11:16:54;;;;;;;23.48;5.50;;;8.10;99.90;;;;;;4966020;28;20038;-78
2023/12/30 11:19:31;;;;;;;13.88;4.90;;;8.10;99.90;;;;;;4965567;28;20504;-73
2023/12/30 11:22:04;;;;;;;29.85;6.97;;;8.10;99.90;;;;;;4979523;28;20121;-80
2023/12/30 11:24:31;;;;;;;23.90;5.43;;;8.20;99.90;;;;;;4974837;28;20544;-82
2023/12/30 11:26:58;;;;;;;21.27;5.32;;;8.20;99.90;;;;;;4973484;28;20039;-80
2023/12/30 11:29:26;;;;;;;24.92;6.50;;;8.20;99.90;;;;;;4977291;28;20045;-78
2023/12/30 11:31:54;;;;;;;32.95;7.53;;;8.20;99.90;;;;;;4976625;28;20046;-81
2023/12/30 11:34:21;;;;;;;18.48;5.70;;;8.20;99.90;;;;;;4975324;28;20045;-81
2023/12/30 11:36:49;;;;;;;15.75;6.53;;;8.20;99.90;;;;;;4959099;28;20038;-72
2023/12/30 11:39:30;;;;;;;25.17;7.95;;;8.20;99.90;;;;;;4959954;28;20030;-81
2023/12/30 11:41:58;;;;;;;21.70;8.38;;;8.30;99.90;;;;;;4971122;28;20042;-76
2023/12/30 11:44:24;;;;;;;36.00;10.30;;;8.30;99.90;;;;;;4971165;28;20037;-78
2023/12/30 11:46:50;;;;;;;24.45;8.82;;;8.40;99.90;;;;;;4985344;28;20034;-81
2023/12/30 11:49:24;;;;;;;34.40;9.70;;;8.40;99.90;;;;;;4956609;28;20602;-73
2023/12/30 11:51:51;;;;;;;26.55;9.82;;;8.50;99.90;;;;;;4974311;28;20069;-78
2023/12/30 11:54:17;;;;;;;43.65;11.68;;;8.50;99.90;;;;;;4946525;28;20042;-83
2023/12/30 11:56:44;;;;;;;31.00;10.20;;;8.50;99.90;;;;;;4959784;28;20034;-83
2023/12/30 11:59:10;;;;;;;24.60;9.48;;;8.50;99.90;;;;;;4980127;28;20035;-75
2023/12/30 12:01:37;;;;;;;28.60;9.85;;;8.60;99.90;;;;;;4977027;28;20050;-81
2023/12/30 12:04:03;;;;;;;29.83;11.45;;;8.60;99.90;;;;;;4976821;28;20053;-83
2023/12/30 12:06:31;;;;;;;22.95;10.02;;;8.60;99.90;;;;;;4977412;28;20050;-81
2023/12/30 12:09:00;;;;;;;28.75;11.60;;;8.60;99.90;;;;;;4961827;28;20034;-83
2023/12/30 12:11:26;;;;;;;31.42;12.75;;;8.70;99.90;;;;;;4962731;28;20049;-82
2023/12/30 12:13:57;;;;;;;27.73;11.45;;;8.70;99.90;;;;;;4994121;28;20106;-80
2023/12/30 12:16:25;;;;;;;43.85;13.85;;;8.70;99.90;;;;;;4976540;28;20511;-83
2023/12/30 12:18:53;;;;;;;43.35;17.15;;;8.70;99.90;;;;;;4977143;28;20041;-79
2023/12/30 12:21:19;;;;;;;37.25;15.70;;;8.70;99.90;;;;;;4974892;28;20041;-80
2023/12/30 12:23:45;;;;;;;39.92;15.00;;;8.70;99.90;;;;;;4960417;28;20030;-74
2023/12/30 12:26:12;;;;;;;46.35;16.55;;;8.80;99.90;;;;;;4976461;28;20050;-81
2023/12/30 12:28:39;;;;;;;39.80;15.00;;;8.80;99.90;;;;;;4956099;28;20042;-80
2023/12/30 12:31:06;;;;;;;32.97;14.80;;;8.90;99.90;;;;;;4941512;28;20034;-78
2023/12/30 12:33:34;;;;;;;35.25;14.98;;;8.90;99.90;;;;;;4956611;28;20038;-82
2023/12/30 12:36:02;;;;;;;34.95;14.88;;;8.90;99.90;;;;;;4955673;28;20038;-83
2023/12/30 12:38:29;;;;;;;36.70;14.70;;;8.90;99.90;;;;;;4972315;28;20026;-83
2023/12/30 12:40:55;;;;;;;43.30;17.67;;;8.90;99.90;;;;;;4976680;28;20042;-75
2023/12/30 12:43:22;;;;;;;32.42;14.63;;;8.90;99.90;;;;;;4973861;28;20034;-77
2023/12/30 12:45:48;;;;;;;52.10;16.65;;;8.90;99.90;;;;;;4972217;28;20457;-79
2023/12/30 12:48:15;;;;;;;37.38;15.02;;;8.90;99.90;;;;;;4974321;28;20358;-80